Time;durP1;ratioP1;P1;durP2;ratioP2;P2;SDS_P1;SDS_P2;PMS_P1;PMS_P2;Temp;Humidity;BMP_temperature;BMP_pressure;BME280_temperature;BME280_humidity;BME280_pressure;Samples;Min_cycle;Max_cycle;Signal;HPM_P1;HPM_P2
2023/10/11 00:01:29;;;;;;;23.50;11.27;;;;;;;;;;5108261;28;20097;-68
2023/10/11 00:03:58;;;;;;;20.92;9.93;;;;;;;;;;5108207;28;20047;-68
2023/10/11 00:06:32;;;;;;;19.42;11.05;;;;;;;;;;5108528;28;20454;-68
2023/10/11 00:08:58;;;;;;;20.55;10.82;;;;;;;;;;5108634;28;20044;-68
2023/10/11 00:11:27;;;;;;;31.05;11.32;;;;;;;;;;5108092;28;20043;-68
2023/10/11 00:13:54;;;;;;;16.77;10.60;;;;;;;;;;5107595;28;20131;-68
2023/10/11 00:16:21;;;;;;;18.50;10.45;;;;;;;;;;5108150;28;20047;-68
2023/10/11 00:18:49;;;;;;;18.67;9.80;;;;;;;;;;5109680;28;20582;-68
2023/10/11 00:21:16;;;;;;;20.13;9.85;;;;;;;;;;5111839;28;20043;-68
2023/10/11 00:23:45;;;;;;;20.60;10.27;;;;;;;;;;5111931;28;20113;-70
2023/10/11 00:26:14;;;;;;;15.93;9.88;;;;;;;;;;5111943;28;20161;-68
2023/10/11 00:28:41;;;;;;;16.05;8.77;;;;;;;;;;5110319;28;20078;-68
2023/10/11 00:31:16;;;;;;;24.20;9.77;;;;;;;;;;5111612;28;20051;-68
2023/10/11 00:33:43;;;;;;;19.23;10.13;;;;;;;;;;5111210;28;20047;-68
2023/10/11 00:36:10;;;;;;;20.23;9.40;;;;;;;;;;5111305;28;20123;-68
2023/10/11 00:38:46;;;;;;;14.50;9.10;;;;;;;;;;5111723;28;20088;-69
2023/10/11 00:41:17;;;;;;;22.02;9.85;;;;;;;;;;5111096;28;20048;-68
2023/10/11 00:43:47;;;;;;;19.15;8.93;;;;;;;;;;5111022;28;20047;-68
2023/10/11 00:46:18;;;;;;;15.82;8.02;;;;;;;;;;5110983;28;20415;-69
2023/10/11 00:51:31;;;;;;;18.42;8.80;;;;;;;;;;5110870;28;19919;-68
2023/10/11 00:53:58;;;;;;;15.07;9.30;;;;;;;;;;5111209;27;20236;-67
2023/10/11 00:56:31;;;;;;;18.05;8.60;;;;;;;;;;5111005;28;20116;-69
2023/10/11 00:58:59;;;;;;;12.80;7.72;;;;;;;;;;5110619;28;20402;-68
2023/10/11 01:01:26;;;;;;;25.88;8.95;;;;;;;;;;5111032;27;20086;-69
2023/10/11 01:03:53;;;;;;;17.15;7.65;;;;;;;;;;5110808;28;20532;-68
2023/10/11 01:06:25;;;;;;;17.10;7.90;;;;;;;;;;5110543;28;20541;-68
2023/10/11 01:08:52;;;;;;;20.17;8.35;;;;;;;;;;5110593;28;20511;-68
2023/10/11 01:11:19;;;;;;;18.63;7.88;;;;;;;;;;5110532;28;20047;-68
2023/10/11 01:13:51;;;;;;;18.02;7.75;;;;;;;;;;5110618;28;20148;-69
2023/10/11 01:16:18;;;;;;;16.30;8.25;;;;;;;;;;5110971;28;20093;-68
2023/10/11 01:18:45;;;;;;;14.65;8.07;;;;;;;;;;5110548;28;20079;-68
2023/10/11 01:21:14;;;;;;;14.57;8.27;;;;;;;;;;5110497;28;20048;-70
2023/10/11 01:23:41;;;;;;;15.10;7.65;;;;;;;;;;5110413;28;20516;-69
2023/10/11 01:26:08;;;;;;;21.73;8.35;;;;;;;;;;5110276;27;20488;-70
2023/10/11 01:28:38;;;;;;;18.20;7.53;;;;;;;;;;5110496;28;20407;-69
2023/10/11 01:31:08;;;;;;;17.98;7.75;;;;;;;;;;5110234;28;20046;-69
2023/10/11 01:33:36;;;;;;;21.00;7.88;;;;;;;;;;5110319;27;20050;-68
2023/10/11 01:36:04;;;;;;;12.00;7.63;;;;;;;;;;5110253;28;20047;-68
2023/10/11 01:38:33;;;;;;;15.38;7.10;;;;;;;;;;5110150;28;20039;-69
2023/10/11 01:40:59;;;;;;;13.82;7.05;;;;;;;;;;5110139;28;20071;-68
2023/10/11 01:43:26;;;;;;;18.92;7.28;;;;;;;;;;5110058;28;20119;-69
2023/10/11 01:45:52;;;;;;;17.42;8.07;;;;;;;;;;5110113;27;20112;-69
2023/10/11 01:48:19;;;;;;;12.32;6.57;;;;;;;;;;5109861;28;20056;-68
2023/10/11 01:50:47;;;;;;;15.20;7.50;;;;;;;;;;5110162;28;20101;-66
2023/10/11 01:53:14;;;;;;;17.17;7.75;;;;;;;;;;5109796;28;20067;-68
2023/10/11 01:55:40;;;;;;;13.95;6.75;;;;;;;;;;5109823;28;20453;-68
2023/10/11 01:58:12;;;;;;;16.30;7.10;;;;;;;;;;5109810;28;20090;-70
2023/10/11 02:00:39;;;;;;;19.73;7.57;;;;;;;;;;5110097;28;20126;-68
2023/10/11 02:03:12;;;;;;;15.85;8.00;;;;;;;;;;5109555;28;20498;-68
2023/10/11 02:05:39;;;;;;;20.45;7.47;;;;;;;;;;5109930;28;20130;-67
2023/10/11 02:08:12;;;;;;;17.70;7.30;;;;;;;;;;5109717;28;20071;-67
2023/10/11 02:10:38;;;;;;;14.65;7.22;;;;;;;;;;5108918;28;20051;-69
2023/10/11 02:13:06;;;;;;;15.05;6.70;;;;;;;;;;5109081;28;20117;-69
2023/10/11 02:15:34;;;;;;;11.88;6.47;;;;;;;;;;5109523;28;20108;-68
2023/10/11 02:18:08;;;;;;;18.50;8.05;;;;;;;;;;5109560;28;20050;-69
2023/10/11 02:20:35;;;;;;;17.90;7.05;;;;;;;;;;5109325;28;20051;-67
2023/10/11 02:23:02;;;;;;;15.93;7.47;;;;;;;;;;5109154;28;20552;-68
2023/10/11 02:25:28;;;;;;;23.40;7.78;;;;;;;;;;5109139;28;20083;-68
2023/10/11 02:27:55;;;;;;;13.88;7.30;;;;;;;;;;5109076;28;20104;-69
2023/10/11 02:30:24;;;;;;;18.70;7.85;;;;;;;;;;5109053;28;20075;-67
2023/10/11 02:32:52;;;;;;;19.20;7.40;;;;;;;;;;5108810;28;20048;-68
2023/10/11 02:35:19;;;;;;;18.75;8.00;;;;;;;;;;5109199;28;20534;-68
2023/10/11 02:37:46;;;;;;;14.18;6.57;;;;;;;;;;5109227;28;20568;-68
2023/10/11 02:40:22;;;;;;;13.68;6.70;;;;;;;;;;5108899;28;20070;-68
2023/10/11 02:42:51;;;;;;;15.40;7.15;;;;;;;;;;5108855;28;20043;-68
2023/10/11 02:45:22;;;;;;;16.70;7.13;;;;;;;;;;5109363;28;20448;-69
2023/10/11 02:47:49;;;;;;;17.70;6.65;;;;;;;;;;5109219;28;20132;-68
2023/10/11 02:50:15;;;;;;;17.00;7.30;;;;;;;;;;5109107;28;20112;-69
2023/10/11 02:52:43;;;;;;;13.88;6.53;;;;;;;;;;5108812;28;20399;-68
2023/10/11 02:55:43;;;;;;;22.00;7.70;;;;;;;;;;5108579;28;20047;-68
2023/10/11 02:58:08;;;;;;;19.27;8.10;;;;;;;;;;5090307;28;20483;-69
2023/10/11 03:00:36;;;;;;;16.70;8.05;;;;;;;;;;5109005;28;20051;-68
2023/10/11 03:03:08;;;;;;;18.35;7.22;;;;;;;;;;5108745;28;20047;-68
2023/10/11 03:05:37;;;;;;;14.55;6.40;;;;;;;;;;5108665;28;20112;-67
2023/10/11 03:08:13;;;;;;;14.38;6.82;;;;;;;;;;5108875;28;20112;-68
2023/10/11 03:10:43;;;;;;;16.83;7.63;;;;;;;;;;5108275;28;20044;-67
2023/10/11 03:13:19;;;;;;;14.30;7.37;;;;;;;;;;5108642;28;20079;-68
2023/10/11 03:15:46;;;;;;;21.73;7.18;;;;;;;;;;5108753;28;20055;-68
2023/10/11 03:18:13;;;;;;;15.85;7.35;;;;;;;;;;5108419;28;20074;-68
2023/10/11 03:20:40;;;;;;;20.00;7.32;;;;;;;;;;5108257;28;20114;-68
2023/10/11 03:23:10;;;;;;;18.60;6.63;;;;;;;;;;5108273;28;20073;-68
2023/10/11 03:25:38;;;;;;;15.95;7.63;;;;;;;;;;5108434;28;20051;-68
2023/10/11 03:28:05;;;;;;;14.57;7.45;;;;;;;;;;5108191;28;20533;-68
2023/10/11 03:30:35;;;;;;;15.02;7.13;;;;;;;;;;5108836;28;20044;-68
2023/10/11 03:33:02;;;;;;;13.38;6.55;;;;;;;;;;5108411;28;20519;-68
2023/10/11 03:35:33;;;;;;;17.23;7.40;;;;;;;;;;5108751;28;20442;-68
2023/10/11 03:38:00;;;;;;;14.80;7.40;;;;;;;;;;5108450;28;20044;-68
2023/10/11 03:40:54;;;;;;;9.98;6.43;;;;;;;;;;5108768;28;20044;-68
2023/10/11 03:43:23;;;;;;;17.20;6.72;;;;;;;;;;5108510;28;20059;-68
2023/10/11 03:45:51;;;;;;;11.40;6.22;;;;;;;;;;5108356;28;20047;-67
2023/10/11 03:48:20;;;;;;;15.93;6.60;;;;;;;;;;5108219;28;20083;-68
2023/10/11 03:50:47;;;;;;;13.13;6.55;;;;;;;;;;5092148;28;20052;-68
2023/10/11 03:53:15;;;;;;;18.50;7.40;;;;;;;;;;5109244;28;20077;-67
2023/10/11 03:55:48;;;;;;;19.85;7.30;;;;;;;;;;5112276;28;20048;-67
2023/10/11 04:03:41;;;;;;;15.75;6.40;;;;;;;;;;5112243;28;20043;-67
2023/10/11 04:06:14;;;;;;;18.70;8.13;;;;;;;;;;5111734;28;20044;-67
2023/10/11 04:08:43;;;;;;;16.05;8.00;;;;;;;;;;5112340;28;20043;-68
2023/10/11 04:11:29;;;;;;;15.68;6.93;;;;;;;;;;5110941;28;20131;-67
2023/10/11 04:13:56;;;;;;;15.15;6.80;;;;;;;;;;5111543;28;20044;-68
2023/10/11 04:16:23;;;;;;;12.70;6.00;;;;;;;;;;5112391;28;20135;-67
2023/10/11 04:18:53;;;;;;;28.27;7.05;;;;;;;;;;5111629;28;20535;-67
2023/10/11 04:21:26;;;;;;;20.42;6.72;;;;;;;;;;5112141;28;20054;-69
2023/10/11 04:23:55;;;;;;;14.52;7.60;;;;;;;;;;5111750;28;20093;-67
2023/10/11 04:29:06;;;;;;;14.77;6.82;;;;;;;;;;5111303;28;20139;-67
2023/10/11 04:31:42;;;;;;;15.77;6.20;;;;;;;;;;5111945;28;20039;-67
2023/10/11 04:34:14;;;;;;;16.13;6.72;;;;;;;;;;5111376;28;20071;-68
2023/10/11 04:36:42;;;;;;;17.10;7.43;;;;;;;;;;5111461;28;20122;-67
2023/10/11 04:39:15;;;;;;;14.98;6.45;;;;;;;;;;5111362;28;20055;-67
2023/10/11 04:41:49;;;;;;;16.50;7.05;;;;;;;;;;5111470;28;20082;-67
2023/10/11 04:44:17;;;;;;;11.90;6.18;;;;;;;;;;5111184;28;20672;-68
2023/10/11 04:46:47;;;;;;;16.77;6.03;;;;;;;;;;5110984;28;20051;-67
2023/10/11 04:49:21;;;;;;;13.95;6.88;;;;;;;;;;5111319;28;20484;-67
2023/10/11 04:51:48;;;;;;;13.82;6.53;;;;;;;;;;5111108;28;20096;-71
2023/10/11 04:54:17;;;;;;;19.08;6.20;;;;;;;;;;5111108;27;20040;-67
2023/10/11 04:59:16;;;;;;;18.00;6.75;;;;;;;;;;5111246;28;20078;-68
2023/10/11 05:04:26;;;;;;;20.75;8.00;;;;;;;;;;5110440;28;21102;-69
2023/10/11 05:06:53;;;;;;;15.50;7.55;;;;;;;;;;5111181;28;20122;-68
2023/10/11 05:19:45;;;;;;;13.93;6.05;;;;;;;;;;5110720;28;20047;-69
2023/10/11 05:32:32;;;;;;;15.02;6.97;;;;;;;;;;5110263;28;20047;-68
2023/10/11 05:51:28;;;;;;;16.02;7.13;;;;;;;;;;5109456;28;20058;-68
2023/10/11 05:53:55;;;;;;;14.13;6.93;;;;;;;;;;5109919;28;20082;-67
2023/10/11 05:56:22;;;;;;;21.95;6.70;;;;;;;;;;5109890;28;20077;-67
2023/10/11 05:58:54;;;;;;;15.25;5.88;;;;;;;;;;5109338;28;20046;-67
2023/10/11 06:01:22;;;;;;;15.90;5.85;;;;;;;;;;5094246;28;20101;-67
2023/10/11 06:03:52;;;;;;;26.42;7.70;;;;;;;;;;5109387;28;20043;-67
2023/10/11 06:06:32;;;;;;;16.08;6.22;;;;;;;;;;5109473;28;20723;-67
2023/10/11 06:08:59;;;;;;;13.07;5.55;;;;;;;;;;5108701;28;20135;-68
2023/10/11 06:11:36;;;;;;;18.63;6.25;;;;;;;;;;5109678;28;20096;-68
2023/10/11 06:14:04;;;;;;;12.93;5.75;;;;;;;;;;5107805;28;20046;-68
2023/10/11 06:16:37;;;;;;;13.15;6.60;;;;;;;;;;5108157;28;20050;-68
2023/10/11 06:19:16;;;;;;;20.52;7.35;;;;;;;;;;5109316;28;20113;-68
2023/10/11 06:21:58;;;;;;;16.52;6.35;;;;;;;;;;5109030;28;20051;-67
2023/10/11 06:24:33;;;;;;;14.20;6.40;;;;;;;;;;5109007;28;20039;-67
2023/10/11 06:29:46;;;;;;;12.63;5.90;;;;;;;;;;5108938;28;20044;-67
2023/10/11 06:32:12;;;;;;;15.40;6.05;;;;;;;;;;5108721;28;20482;-69
2023/10/11 06:34:47;;;;;;;11.40;5.68;;;;;;;;;;5108570;28;20047;-67
2023/10/11 06:37:18;;;;;;;10.68;6.03;;;;;;;;;;5108631;28;20134;-67
2023/10/11 06:42:13;;;;;;;16.15;5.15;;;;;;;;;;5109145;28;20068;-66
2023/10/11 06:44:40;;;;;;;15.50;5.32;;;;;;;;;;5109058;28;20048;-68
2023/10/11 06:47:10;;;;;;;10.77;4.88;;;;;;;;;;5108822;28;20056;-69
2023/10/11 06:49:40;;;;;;;11.13;5.20;;;;;;;;;;5108445;28;20055;-67
2023/10/11 06:52:07;;;;;;;14.98;6.25;;;;;;;;;;5108744;28;20296;-69
2023/10/11 06:54:34;;;;;;;14.48;6.25;;;;;;;;;;5108320;28;20071;-67
2023/10/11 06:57:01;;;;;;;12.63;5.60;;;;;;;;;;5108163;28;20126;-68
2023/10/11 06:59:28;;;;;;;15.43;5.25;;;;;;;;;;5108163;28;20059;-67
2023/10/11 07:01:54;;;;;;;12.10;5.47;;;;;;;;;;5108285;28;20043;-66
2023/10/11 07:04:21;;;;;;;9.77;5.07;;;;;;;;;;5108275;28;20054;-67
2023/10/11 07:06:48;;;;;;;13.05;5.35;;;;;;;;;;5107887;28;20481;-67
2023/10/11 07:09:21;;;;;;;16.42;5.55;;;;;;;;;;5108367;28;20122;-66
2023/10/11 07:11:52;;;;;;;13.80;5.07;;;;;;;;;;5107979;28;20447;-69
2023/10/11 07:14:18;;;;;;;16.67;5.53;;;;;;;;;;5108360;28;20214;-67
2023/10/11 07:16:46;;;;;;;10.00;5.20;;;;;;;;;;5107669;28;20376;-66
2023/10/11 07:19:15;;;;;;;12.07;6.40;;;;;;;;;;5108055;28;20048;-68
2023/10/11 07:21:52;;;;;;;15.13;5.50;;;;;;;;;;5107903;28;20609;-68
2023/10/11 07:26:59;;;;;;;12.52;5.03;;;;;;;;;;5107785;28;20083;-68
2023/10/11 07:29:26;;;;;;;17.63;5.78;;;;;;;;;;5112042;28;20127;-67
2023/10/11 07:31:53;;;;;;;11.57;4.38;;;;;;;;;;5112336;28;20637;-68
2023/10/11 07:34:20;;;;;;;11.45;4.80;;;;;;;;;;5112204;28;20062;-68
2023/10/11 07:36:48;;;;;;;11.88;5.20;;;;;;;;;;5112122;28;20047;-68
2023/10/11 07:39:25;;;;;;;18.25;5.20;;;;;;;;;;5105343;28;20122;-67
2023/10/11 07:42:00;;;;;;;11.50;4.32;;;;;;;;;;5105138;28;20093;-71
2023/10/11 07:44:29;;;;;;;7.45;4.50;;;;;;;;;;5107378;27;20127;-70
2023/10/11 07:46:56;;;;;;;19.33;5.53;;;;;;;;;;5101329;28;20540;-69
2023/10/11 07:49:24;;;;;;;8.50;4.50;;;;;;;;;;5108173;28;20078;-67
2023/10/11 07:51:58;;;;;;;18.20;5.05;;;;;;;;;;5111119;28;20050;-68
2023/10/11 07:54:26;;;;;;;14.38;5.40;;;;;;;;;;5110872;28;20136;-68
2023/10/11 07:56:57;;;;;;;9.82;3.85;;;;;;;;;;5110027;28;20751;-69
2023/10/11 07:59:28;;;;;;;9.23;4.70;;;;;;;;;;5106907;27;20509;-68
2023/10/11 08:01:56;;;;;;;15.32;4.55;;;;;;;;;;5110218;28;20039;-69
2023/10/11 08:04:30;;;;;;;11.48;4.38;;;;;;;;;;5109827;28;20043;-69
2023/10/11 08:07:02;;;;;;;9.68;4.65;;;;;;;;;;5110708;28;20043;-70
2023/10/11 08:09:45;;;;;;;15.15;4.55;;;;;;;;;;5106680;28;20124;-67
2023/10/11 08:12:14;;;;;;;10.13;4.65;;;;;;;;;;5109815;28;20500;-67
2023/10/11 08:14:53;;;;;;;8.90;4.18;;;;;;;;;;5109792;27;20082;-67
2023/10/11 08:17:20;;;;;;;11.43;3.65;;;;;;;;;;5110060;28;20043;-69
2023/10/11 08:19:48;;;;;;;13.60;4.47;;;;;;;;;;5107142;28;20046;-69
2023/10/11 08:22:15;;;;;;;15.40;4.40;;;;;;;;;;5110963;28;20044;-68
2023/10/11 08:24:49;;;;;;;17.15;4.93;;;;;;;;;;5105562;28;20051;-67
2023/10/11 08:27:23;;;;;;;9.63;4.65;;;;;;;;;;5110723;28;20156;-68
2023/10/11 08:29:54;;;;;;;13.60;5.07;;;;;;;;;;5108412;28;20142;-68
2023/10/11 08:32:29;;;;;;;8.07;4.15;;;;;;;;;;5111141;28;20039;-69
2023/10/11 08:34:56;;;;;;;17.92;4.53;;;;;;;;;;5103147;28;20488;-69
2023/10/11 08:37:22;;;;;;;11.57;5.55;;;;;;;;;;5105984;28;20541;-69
2023/10/11 08:39:50;;;;;;;15.68;5.20;;;;;;;;;;5108119;28;20040;-67
2023/10/11 08:42:17;;;;;;;12.23;4.90;;;;;;;;;;5110551;28;20040;-68
2023/10/11 08:44:45;;;;;;;12.00;4.65;;;;;;;;;;5112560;27;20036;-68
2023/10/11 08:47:19;;;;;;;14.68;5.13;;;;;;;;;;5110611;28;20079;-66
2023/10/11 08:49:49;;;;;;;12.07;4.82;;;;;;;;;;5108616;28;20035;-66
2023/10/11 08:52:21;;;;;;;13.85;4.30;;;;;;;;;;5109308;28;20059;-66
2023/10/11 08:54:48;;;;;;;14.35;4.97;;;;;;;;;;5109881;27;20118;-66
2023/10/11 08:57:23;;;;;;;13.32;4.45;;;;;;;;;;5107112;28;20458;-68
2023/10/11 08:59:50;;;;;;;12.38;4.32;;;;;;;;;;5110322;28;20696;-68
2023/10/11 09:02:17;;;;;;;13.57;4.68;;;;;;;;;;5110336;28;20044;-67
2023/10/11 09:04:59;;;;;;;14.25;5.13;;;;;;;;;;5109820;28;20048;-69
2023/10/11 09:07:38;;;;;;;11.35;4.88;;;;;;;;;;5104490;28;20075;-67
2023/10/11 09:10:34;;;;;;;12.52;5.18;;;;;;;;;;5106452;27;20480;-67
2023/10/11 09:13:02;;;;;;;13.60;4.47;;;;;;;;;;5107538;28;20047;-69
2023/10/11 09:15:36;;;;;;;9.77;4.82;;;;;;;;;;5103634;28;20069;-67
2023/10/11 09:18:14;;;;;;;11.75;4.07;;;;;;;;;;5102115;28;20079;-70
2023/10/11 09:23:36;;;;;;;19.50;6.18;;;;;;;;;;5108501;28;20472;-67
2023/10/11 09:26:05;;;;;;;13.70;4.72;;;;;;;;;;5108018;28;20048;-67
2023/10/11 09:28:40;;;;;;;13.80;5.25;;;;;;;;;;5106513;28;20502;-69
2023/10/11 09:31:15;;;;;;;17.67;5.15;;;;;;;;;;5109046;27;20048;-69
2023/10/11 09:33:49;;;;;;;8.80;4.18;;;;;;;;;;5108814;28;20117;-68
2023/10/11 09:36:17;;;;;;;9.20;3.65;;;;;;;;;;5109218;28;20474;-67
2023/10/11 09:38:45;;;;;;;8.55;4.22;;;;;;;;;;5108402;28;20122;-67
2023/10/11 09:41:13;;;;;;;16.30;4.47;;;;;;;;;;5102219;27;20476;-67
2023/10/11 09:43:44;;;;;;;13.00;5.30;;;;;;;;;;5108874;27;20043;-68
2023/10/11 09:46:11;;;;;;;27.52;6.30;;;;;;;;;;5103609;28;20498;-67
2023/10/11 09:48:39;;;;;;;14.95;4.25;;;;;;;;;;5101715;28;20050;-69
2023/10/11 09:51:08;;;;;;;7.35;4.00;;;;;;;;;;5108249;27;20067;-71
2023/10/11 09:53:41;;;;;;;15.10;4.55;;;;;;;;;;5098451;28;20457;-69
2023/10/11 09:56:17;;;;;;;15.68;4.95;;;;;;;;;;5109156;28;20047;-67
2023/10/11 09:59:07;;;;;;;6.88;3.30;;;;;;;;;;5108243;27;20468;-68
2023/10/11 10:01:38;;;;;;;10.23;4.28;;;;;;;;;;5099306;28;20169;-68
2023/10/11 10:04:07;;;;;;;12.15;4.20;;;;;;;;;;5102837;28;20063;-69
2023/10/11 10:06:34;;;;;;;12.50;4.20;;;;;;;;;;5108640;28;20047;-68
2023/10/11 10:09:04;;;;;;;9.70;4.18;;;;;;;;;;5106361;28;20415;-71
2023/10/11 10:11:54;;;;;;;7.95;4.00;;;;;;;;;;5109402;28;20555;-70
2023/10/11 10:14:24;;;;;;;13.40;3.83;;;;;;;;;;5096170;28;20546;-67
2023/10/11 10:17:10;;;;;;;13.48;4.53;;;;;;;;;;5106765;28;20134;-68
2023/10/11 10:19:39;;;;;;;17.77;4.28;;;;;;;;;;5106255;28;20591;-70
2023/10/11 10:22:09;;;;;;;21.35;4.50;;;;;;;;;;5096453;27;20122;-69
2023/10/11 10:24:36;;;;;;;10.70;4.03;;;;;;;;;;5105931;28;20100;-69
2023/10/11 10:27:21;;;;;;;9.63;3.83;;;;;;;;;;5102711;28;20039;-68
2023/10/11 10:29:55;;;;;;;17.27;4.07;;;;;;;;;;5108004;28;20055;-71
2023/10/11 10:32:23;;;;;;;7.45;4.13;;;;;;;;;;5108740;28;20055;-71
2023/10/11 10:35:11;;;;;;;11.25;4.45;;;;;;;;;;5108414;27;20062;-72
2023/10/11 10:37:47;;;;;;;10.05;4.35;;;;;;;;;;5107577;28;20055;-74
2023/10/11 10:40:26;;;;;;;8.93;3.72;;;;;;;;;;5102044;28;20083;-69
2023/10/11 10:43:06;;;;;;;10.18;4.38;;;;;;;;;;5102318;28;20085;-72
2023/10/11 10:45:34;;;;;;;14.50;4.03;;;;;;;;;;5108059;27;20047;-70
2023/10/11 10:48:14;;;;;;;10.65;4.70;;;;;;;;;;5106961;28;20055;-70
2023/10/11 10:50:46;;;;;;;11.70;4.03;;;;;;;;;;5107801;27;20097;-71
2023/10/11 10:53:16;;;;;;;8.98;3.45;;;;;;;;;;5104864;28;20526;-69
2023/10/11 10:55:43;;;;;;;11.13;3.60;;;;;;;;;;5107380;28;20040;-70
2023/10/11 10:58:19;;;;;;;10.23;4.22;;;;;;;;;;5107666;28;20154;-71
2023/10/11 11:00:51;;;;;;;9.88;3.95;;;;;;;;;;5104377;28;20188;-70
2023/10/11 11:03:22;;;;;;;13.63;3.60;;;;;;;;;;5111189;27;20039;-70
2023/10/11 11:05:55;;;;;;;13.82;3.85;;;;;;;;;;5106948;27;20054;-71
2023/10/11 11:08:29;;;;;;;8.98;3.83;;;;;;;;;;5106697;28;20419;-72
2023/10/11 11:11:25;;;;;;;12.25;3.92;;;;;;;;;;5095746;28;20096;-71
2023/10/11 11:13:54;;;;;;;16.17;4.82;;;;;;;;;;5106483;28;20039;-72
2023/10/11 11:16:26;;;;;;;9.43;4.10;;;;;;;;;;5108018;28;20151;-71
2023/10/11 11:18:53;;;;;;;8.70;4.60;;;;;;;;;;5106988;28;20093;-71
2023/10/11 11:21:25;;;;;;;12.77;4.60;;;;;;;;;;5107951;28;20052;-70
2023/10/11 11:23:52;;;;;;;8.70;3.45;;;;;;;;;;5106979;28;20071;-71
2023/10/11 11:26:23;;;;;;;8.02;3.83;;;;;;;;;;5105594;28;20044;-72
2023/10/11 11:29:16;;;;;;;7.95;3.70;;;;;;;;;;5103870;28;20043;-69
2023/10/11 11:32:17;;;;;;;10.38;4.20;;;;;;;;;;5103789;28;20044;-68
2023/10/11 11:34:44;;;;;;;;;;;;;;;;;;5105495;28;20130;-68
2023/10/11 11:37:20;;;;;;;10.10;4.20;;;;;;;;;;5107225;28;20355;-70
2023/10/11 11:39:51;;;;;;;8.00;4.22;;;;;;;;;;5106116;28;20043;-68
2023/10/11 11:42:24;;;;;;;17.02;4.47;;;;;;;;;;5106433;28;20104;-67
2023/10/11 11:44:51;;;;;;;13.38;4.78;;;;;;;;;;5100020;28;20047;-67
2023/10/11 11:47:23;;;;;;;10.07;3.85;;;;;;;;;;5106631;28;20489;-68
2023/10/11 11:49:53;;;;;;;9.88;4.13;;;;;;;;;;5091092;28;20192;-68
2023/10/11 11:52:21;;;;;;;11.75;3.88;;;;;;;;;;5106766;28;20046;-70
2023/10/11 11:54:47;;;;;;;9.32;4.07;;;;;;;;;;5107369;28;20047;-69
2023/10/11 11:57:14;;;;;;;12.25;4.20;;;;;;;;;;5106655;28;20231;-68
2023/10/11 11:59:43;;;;;;;14.68;5.00;;;;;;;;;;5107247;28;20047;-74
2023/10/11 12:02:16;;;;;;;14.20;4.93;;;;;;;;;;5106518;28;20040;-70
2023/10/11 12:04:44;;;;;;;12.93;4.68;;;;;;;;;;5107218;28;20048;-72
2023/10/11 12:07:11;;;;;;;6.88;3.63;;;;;;;;;;5106760;28;20047;-73
2023/10/11 12:09:39;;;;;;;8.20;3.70;;;;;;;;;;5108181;28;20040;-74
2023/10/11 12:12:27;;;;;;;9.77;4.73;;;;;;;;;;5107324;28;20549;-72
2023/10/11 12:14:54;;;;;;;11.98;3.92;;;;;;;;;;5106821;28;20048;-71
2023/10/11 12:17:21;;;;;;;13.23;4.35;;;;;;;;;;5109711;28;20134;-71
2023/10/11 12:19:53;;;;;;;16.65;4.47;;;;;;;;;;5109893;28;20698;-73
2023/10/11 12:22:22;;;;;;;7.18;3.90;;;;;;;;;;5110147;27;20048;-71
2023/10/11 12:24:49;;;;;;;8.13;4.85;;;;;;;;;;5110432;27;20051;-73
2023/10/11 12:27:16;;;;;;;14.43;4.53;;;;;;;;;;5109949;28;20063;-71
2023/10/11 12:29:44;;;;;;;11.77;4.57;;;;;;;;;;5110724;28;20251;-72
2023/10/11 12:32:33;;;;;;;10.13;3.97;;;;;;;;;;5110926;28;20096;-71
2023/10/11 12:35:04;;;;;;;14.35;4.18;;;;;;;;;;5110425;28;20044;-72
2023/10/11 12:37:33;;;;;;;10.43;5.28;;;;;;;;;;5110921;28;20078;-70
2023/10/11 12:40:00;;;;;;;14.38;4.63;;;;;;;;;;5110703;28;20054;-71
2023/10/11 12:42:27;;;;;;;12.55;4.13;;;;;;;;;;5110793;28;20114;-71
2023/10/11 12:44:53;;;;;;;12.57;4.57;;;;;;;;;;5110312;28;20122;-70
2023/10/11 12:47:20;;;;;;;16.50;5.63;;;;;;;;;;5110508;28;20127;-71
2023/10/11 12:49:46;;;;;;;9.20;3.72;;;;;;;;;;5110462;28;20087;-72
2023/10/11 12:52:18;;;;;;;11.13;4.68;;;;;;;;;;5110405;28;20547;-71
2023/10/11 12:54:47;;;;;;;9.50;3.60;;;;;;;;;;5110461;28;20110;-71
2023/10/11 12:57:15;;;;;;;11.88;4.20;;;;;;;;;;5109140;28;20136;-71
2023/10/11 12:59:41;;;;;;;10.82;3.67;;;;;;;;;;5110698;28;20148;-70
2023/10/11 13:02:10;;;;;;;14.32;3.85;;;;;;;;;;5109881;28;20462;-70
2023/10/11 13:04:41;;;;;;;14.95;4.30;;;;;;;;;;5110269;28;20047;-70
2023/10/11 13:07:13;;;;;;;10.82;3.85;;;;;;;;;;5110425;28;20534;-70
2023/10/11 13:09:40;;;;;;;13.93;4.00;;;;;;;;;;5110145;28;20039;-70
2023/10/11 13:12:08;;;;;;;12.63;3.90;;;;;;;;;;5109773;28;20051;-70
2023/10/11 13:14:38;;;;;;;8.65;4.43;;;;;;;;;;5110215;28;20039;-72
2023/10/11 13:17:11;;;;;;;15.95;4.07;;;;;;;;;;5108205;28;20138;-71
2023/10/11 13:19:43;;;;;;;9.60;4.32;;;;;;;;;;5109954;28;20290;-70
2023/10/11 13:22:12;;;;;;;11.98;4.13;;;;;;;;;;5109919;28;20411;-71
2023/10/11 13:24:39;;;;;;;13.00;4.45;;;;;;;;;;5109716;28;20054;-70
2023/10/11 13:27:07;;;;;;;9.45;4.15;;;;;;;;;;5108033;28;20047;-71
2023/10/11 13:29:37;;;;;;;11.52;4.20;;;;;;;;;;5109501;28;20040;-71
2023/10/11 13:32:07;;;;;;;11.68;4.03;;;;;;;;;;5109533;28;20070;-71
2023/10/11 13:34:42;;;;;;;11.95;4.47;;;;;;;;;;5109382;28;20071;-71
2023/10/11 13:37:14;;;;;;;8.95;4.28;;;;;;;;;;5107970;28;20053;-71
2023/10/11 13:39:46;;;;;;;11.98;4.10;;;;;;;;;;5108991;28;20127;-70
2023/10/11 13:42:14;;;;;;;13.68;4.68;;;;;;;;;;5107643;28;20048;-70
2023/10/11 13:44:43;;;;;;;13.38;4.20;;;;;;;;;;5108374;28;20131;-71
2023/10/11 13:47:10;;;;;;;10.38;3.80;;;;;;;;;;5106631;28;20428;-71
2023/10/11 13:49:39;;;;;;;7.78;3.28;;;;;;;;;;5107876;28;20051;-71
2023/10/11 13:52:07;;;;;;;16.10;4.40;;;;;;;;;;5107367;28;20047;-71
2023/10/11 13:57:01;;;;;;;9.32;4.40;;;;;;;;;;5107217;28;20090;-71
2023/10/11 13:59:36;;;;;;;9.73;3.40;;;;;;;;;;5109201;28;20047;-71
2023/10/11 14:02:33;;;;;;;7.43;3.72;;;;;;;;;;5108837;28;20048;-71
2023/10/11 14:04:55;;;;;;;8.27;3.88;;;;;;;;;;5109171;28;20379;-72
2023/10/11 14:07:23;;;;;;;14.20;3.83;;;;;;;;;;5109334;28;20051;-72
2023/10/11 14:09:53;;;;;;;12.32;4.38;;;;;;;;;;5109115;28;20047;-72
2023/10/11 14:12:24;;;;;;;10.35;4.22;;;;;;;;;;5108783;28;20051;-72
2023/10/11 14:14:52;;;;;;;8.70;3.42;;;;;;;;;;5108565;28;20054;-71
2023/10/11 14:17:24;;;;;;;9.63;4.28;;;;;;;;;;5108856;28;20126;-71
2023/10/11 14:19:51;;;;;;;7.78;3.83;;;;;;;;;;5108634;28;20055;-71
2023/10/11 14:22:18;;;;;;;9.75;3.58;;;;;;;;;;5108645;27;20126;-71
2023/10/11 14:24:45;;;;;;;12.38;4.25;;;;;;;;;;5108551;28;20046;-71
2023/10/11 14:27:11;;;;;;;10.15;3.80;;;;;;;;;;5108518;28;20046;-71
2023/10/11 14:29:38;;;;;;;8.77;3.63;;;;;;;;;;5108594;28;20123;-71
2023/10/11 14:32:05;;;;;;;13.15;4.68;;;;;;;;;;5108376;28;20134;-71
2023/10/11 14:34:31;;;;;;;11.85;3.75;;;;;;;;;;5108344;28;20075;-72
2023/10/11 14:36:58;;;;;;;12.05;3.92;;;;;;;;;;5107810;28;20123;-70
2023/10/11 14:39:25;;;;;;;11.20;3.47;;;;;;;;;;5108595;28;20048;-71
2023/10/11 14:41:51;;;;;;;13.52;5.30;;;;;;;;;;5108241;28;20096;-71
2023/10/11 14:44:18;;;;;;;11.95;4.72;;;;;;;;;;5108496;28;20118;-70
2023/10/11 14:46:45;;;;;;;11.32;3.70;;;;;;;;;;5108070;28;20079;-71
2023/10/11 14:49:12;;;;;;;11.77;4.40;;;;;;;;;;5108606;28;20043;-71
2023/10/11 14:51:39;;;;;;;13.88;4.72;;;;;;;;;;5107955;28;20073;-71
2023/10/11 14:54:12;;;;;;;14.50;5.03;;;;;;;;;;5108262;28;20051;-72
2023/10/11 14:56:39;;;;;;;14.70;4.28;;;;;;;;;;5107906;28;20056;-72
2023/10/11 14:59:05;;;;;;;13.68;4.15;;;;;;;;;;5107803;28;20047;-72
2023/10/11 15:01:33;;;;;;;11.32;3.70;;;;;;;;;;5108301;28;20039;-71
2023/10/11 15:04:09;;;;;;;13.73;4.22;;;;;;;;;;5107984;28;20047;-72
2023/10/11 15:06:38;;;;;;;19.58;4.78;;;;;;;;;;5107867;28;20077;-72
2023/10/11 15:09:09;;;;;;;10.85;3.88;;;;;;;;;;5107948;28;20058;-71
2023/10/11 15:11:35;;;;;;;11.38;3.90;;;;;;;;;;5107852;28;20116;-70
2023/10/11 15:14:07;;;;;;;10.70;4.88;;;;;;;;;;5108124;28;20071;-70
2023/10/11 15:16:34;;;;;;;11.85;4.43;;;;;;;;;;5108028;28;20048;-72
2023/10/11 15:19:02;;;;;;;11.48;3.95;;;;;;;;;;5107649;28;20424;-71
2023/10/11 15:21:28;;;;;;;12.43;3.95;;;;;;;;;;5107998;28;20044;-71
2023/10/11 15:23:55;;;;;;;6.88;2.80;;;;;;;;;;5107054;28;20044;-71
2023/10/11 15:26:21;;;;;;;10.48;3.17;;;;;;;;;;5107890;28;20039;-73
2023/10/11 15:28:49;;;;;;;20.38;4.85;;;;;;;;;;5107435;28;20209;-72
2023/10/11 15:31:16;;;;;;;11.88;4.03;;;;;;;;;;5107559;28;20550;-72
2023/10/11 15:33:45;;;;;;;7.90;3.45;;;;;;;;;;5107339;28;20055;-71
2023/10/11 15:36:12;;;;;;;14.38;4.22;;;;;;;;;;5107592;28;20062;-72
2023/10/11 15:38:38;;;;;;;9.52;4.13;;;;;;;;;;5107413;28;20415;-71
2023/10/11 15:41:05;;;;;;;11.10;3.65;;;;;;;;;;5107307;28;20053;-71
2023/10/11 15:43:34;;;;;;;11.30;3.92;;;;;;;;;;5107440;28;20043;-71
2023/10/11 15:46:04;;;;;;;15.20;4.35;;;;;;;;;;5106907;28;20083;-71
2023/10/11 15:48:31;;;;;;;9.68;3.33;;;;;;;;;;5108513;28;20051;-71
2023/10/11 15:51:05;;;;;;;13.65;4.10;;;;;;;;;;5111306;28;20039;-73
2023/10/11 15:53:34;;;;;;;13.10;4.40;;;;;;;;;;5111162;28;20048;-72
2023/10/11 15:56:02;;;;;;;11.07;5.40;;;;;;;;;;5111378;28;20124;-72